sensor_id;sensor_type;location;lat;lon;timestamp;pressure;altitude;pressure_sealevel;temperature;humidity
37200;BME280;23096;50.892;16.746;2023-07-13T00:00:12;98883.77;;;23.22;57.89
37200;BME280;23096;50.892;16.746;2023-07-13T00:02:41;98885.70;;;23.22;57.77
37200;BME280;23096;50.892;16.746;2023-07-13T00:05:07;98887.40;;;23.21;57.82
37200;BME280;23096;50.892;16.746;2023-07-13T00:07:32;98891.16;;;23.20;57.82
37200;BME280;23096;50.892;16.746;2023-07-13T00:09:58;98897.56;;;23.19;57.73
37200;BME280;23096;50.892;16.746;2023-07-13T00:12:34;98901.27;;;23.14;57.70
37200;BME280;23096;50.892;16.746;2023-07-13T00:15:07;98898.53;;;23.12;57.83
37200;BME280;23096;50.892;16.746;2023-07-13T00:17:33;98898.64;;;23.08;57.76
37200;BME280;23096;50.892;16.746;2023-07-13T00:19:58;98895.61;;;23.07;57.77
37200;BME280;23096;50.892;16.746;2023-07-13T00:22:24;98894.77;;;23.05;57.78
37200;BME280;23096;50.892;16.746;2023-07-13T00:24:54;98902.63;;;23.03;57.85
37200;BME280;23096;50.892;16.746;2023-07-13T00:27:22;98905.02;;;22.97;57.88
37200;BME280;23096;50.892;16.746;2023-07-13T00:29:48;98908.05;;;22.93;57.87
37200;BME280;23096;50.892;16.746;2023-07-13T00:32:13;98909.98;;;22.93;57.91
37200;BME280;23096;50.892;16.746;2023-07-13T00:34:39;98913.87;;;22.94;58.00
37200;BME280;23096;50.892;16.746;2023-07-13T00:37:06;98913.46;;;22.97;57.96
37200;BME280;23096;50.892;16.746;2023-07-13T00:39:35;98915.52;;;23.00;57.92
37200;BME280;23096;50.892;16.746;2023-07-13T00:42:03;98919.28;;;23.01;57.94
37200;BME280;23096;50.892;16.746;2023-07-13T00:44:29;98920.83;;;22.99;58.00
37200;BME280;23096;50.892;16.746;2023-07-13T00:46:55;98920.36;;;22.96;57.94
37200;BME280;23096;50.892;16.746;2023-07-13T00:49:24;98924.21;;;22.90;58.04
37200;BME280;23096;50.892;16.746;2023-07-13T00:51:55;98921.70;;;22.79;58.04
37200;BME280;23096;50.892;16.746;2023-07-13T00:54:28;98926.70;;;22.68;58.22
37200;BME280;23096;50.892;16.746;2023-07-13T00:56:58;98928.90;;;22.57;58.32
37200;BME280;23096;50.892;16.746;2023-07-13T00:59:25;98929.77;;;22.47;58.37
37200;BME280;23096;50.892;16.746;2023-07-13T01:01:51;98930.00;;;22.39;58.57
37200;BME280;23096;50.892;16.746;2023-07-13T01:04:17;98925.35;;;22.37;58.77
37200;BME280;23096;50.892;16.746;2023-07-13T01:06:46;98923.04;;;22.33;59.01
37200;BME280;23096;50.892;16.746;2023-07-13T01:09:14;98920.81;;;22.35;59.11
37200;BME280;23096;50.892;16.746;2023-07-13T01:11:41;98919.08;;;22.36;59.03
37200;BME280;23096;50.892;16.746;2023-07-13T01:14:08;98917.34;;;22.36;59.02
37200;BME280;23096;50.892;16.746;2023-07-13T01:16:35;98912.25;;;22.34;59.07
37200;BME280;23096;50.892;16.746;2023-07-13T01:19:05;98907.42;;;22.29;59.10
37200;BME280;23096;50.892;16.746;2023-07-13T01:21:34;98905.55;;;22.25;59.11
37200;BME280;23096;50.892;16.746;2023-07-13T01:24:00;98902.47;;;22.22;59.26
37200;BME280;23096;50.892;16.746;2023-07-13T01:26:27;98891.88;;;22.18;59.26
37200;BME280;23096;50.892;16.746;2023-07-13T01:28:53;98883.45;;;22.17;59.44
37200;BME280;23096;50.892;16.746;2023-07-13T01:31:18;98876.55;;;22.14;59.64
37200;BME280;23096;50.892;16.746;2023-07-13T01:33:44;98876.29;;;22.07;59.52
37200;BME280;23096;50.892;16.746;2023-07-13T01:36:11;98873.35;;;21.98;59.44
37200;BME280;23096;50.892;16.746;2023-07-13T01:38:37;98868.67;;;21.89;59.84
37200;BME280;23096;50.892;16.746;2023-07-13T01:41:03;98873.95;;;21.83;59.79
37200;BME280;23096;50.892;16.746;2023-07-13T01:43:29;98870.80;;;21.76;59.87
37200;BME280;23096;50.892;16.746;2023-07-13T01:45:55;98865.17;;;21.74;60.09
37200;BME280;23096;50.892;16.746;2023-07-13T01:48:20;98865.44;;;21.74;60.12
37200;BME280;23096;50.892;16.746;2023-07-13T01:50:48;98860.63;;;21.71;60.19
37200;BME280;23096;50.892;16.746;2023-07-13T01:53:13;98859.87;;;21.67;60.09
37200;BME280;23096;50.892;16.746;2023-07-13T01:55:39;98861.95;;;21.63;60.15
37200;BME280;23096;50.892;16.746;2023-07-13T01:58:05;98860.36;;;21.57;60.17
37200;BME280;23096;50.892;16.746;2023-07-13T02:00:32;98860.94;;;21.43;60.07
37200;BME280;23096;50.892;16.746;2023-07-13T02:02:58;98861.13;;;21.33;60.30
37200;BME280;23096;50.892;16.746;2023-07-13T02:05:24;98859.57;;;21.28;60.36
37200;BME280;23096;50.892;16.746;2023-07-13T02:07:49;98857.11;;;21.27;60.60
37200;BME280;23096;50.892;16.746;2023-07-13T02:10:15;98865.92;;;21.25;60.59
37200;BME280;23096;50.892;16.746;2023-07-13T02:12:42;98865.88;;;21.23;60.71
37200;BME280;23096;50.892;16.746;2023-07-13T02:15:08;98862.63;;;21.23;60.75
37200;BME280;23096;50.892;16.746;2023-07-13T02:17:35;98861.45;;;21.22;60.89
37200;BME280;23096;50.892;16.746;2023-07-13T02:20:01;98862.02;;;21.22;60.87
37200;BME280;23096;50.892;16.746;2023-07-13T02:22:27;98853.95;;;21.20;60.93
37200;BME280;23096;50.892;16.746;2023-07-13T02:24:56;98853.51;;;21.19;61.05
37200;BME280;23096;50.892;16.746;2023-07-13T02:27:22;98849.88;;;21.19;61.20
37200;BME280;23096;50.892;16.746;2023-07-13T02:29:49;98848.14;;;21.18;61.10
37200;BME280;23096;50.892;16.746;2023-07-13T02:32:17;98846.22;;;21.16;61.27
37200;BME280;23096;50.892;16.746;2023-07-13T02:34:44;98848.88;;;21.14;61.39
37200;BME280;23096;50.892;16.746;2023-07-13T02:37:10;98848.28;;;21.13;61.53
37200;BME280;23096;50.892;16.746;2023-07-13T02:39:35;98849.17;;;21.08;61.54
37200;BME280;23096;50.892;16.746;2023-07-13T02:42:02;98850.77;;;21.07;61.81
37200;BME280;23096;50.892;16.746;2023-07-13T02:44:28;98851.06;;;21.09;61.97
37200;BME280;23096;50.892;16.746;2023-07-13T02:46:55;98852.89;;;21.10;62.07
37200;BME280;23096;50.892;16.746;2023-07-13T02:49:20;98855.52;;;21.12;62.21
37200;BME280;23096;50.892;16.746;2023-07-13T02:51:47;98863.48;;;21.14;62.34
37200;BME280;23096;50.892;16.746;2023-07-13T02:54:13;98869.14;;;21.16;62.16
37200;BME280;23096;50.892;16.746;2023-07-13T02:56:40;98866.87;;;21.16;62.17
37200;BME280;23096;50.892;16.746;2023-07-13T02:59:06;98862.80;;;21.16;62.21
37200;BME280;23096;50.892;16.746;2023-07-13T03:01:31;98862.14;;;21.20;62.21
37200;BME280;23096;50.892;16.746;2023-07-13T03:04:01;98862.92;;;21.21;62.16
37200;BME280;23096;50.892;16.746;2023-07-13T03:06:27;98865.30;;;21.22;62.15
37200;BME280;23096;50.892;16.746;2023-07-13T03:08:56;98870.52;;;21.24;62.25
37200;BME280;23096;50.892;16.746;2023-07-13T03:11:22;98878.06;;;21.22;61.99
37200;BME280;23096;50.892;16.746;2023-07-13T03:14:08;98875.59;;;21.16;61.85
37200;BME280;23096;50.892;16.746;2023-07-13T03:16:35;98875.11;;;21.13;61.94
37200;BME280;23096;50.892;16.746;2023-07-13T03:19:00;98878.05;;;21.11;62.01
37200;BME280;23096;50.892;16.746;2023-07-13T03:21:26;98878.48;;;21.13;61.97
37200;BME280;23096;50.892;16.746;2023-07-13T03:23:51;98883.90;;;21.13;61.95
37200;BME280;23096;50.892;16.746;2023-07-13T03:26:19;98883.58;;;21.14;61.92
37200;BME280;23096;50.892;16.746;2023-07-13T03:28:46;98881.36;;;21.18;61.96
37200;BME280;23096;50.892;16.746;2023-07-13T03:31:19;98884.81;;;21.18;61.72
37200;BME280;23096;50.892;16.746;2023-07-13T03:33:45;98888.60;;;21.17;61.66
37200;BME280;23096;50.892;16.746;2023-07-13T03:36:17;98889.31;;;21.17;61.74
37200;BME280;23096;50.892;16.746;2023-07-13T03:38:53;98886.89;;;21.19;61.78
37200;BME280;23096;50.892;16.746;2023-07-13T03:41:22;98883.16;;;21.21;61.69
37200;BME280;23096;50.892;16.746;2023-07-13T03:43:48;98882.56;;;21.22;61.48
37200;BME280;23096;50.892;16.746;2023-07-13T03:46:15;98883.77;;;21.23;61.43
37200;BME280;23096;50.892;16.746;2023-07-13T03:48:42;98887.45;;;21.23;61.43
37200;BME280;23096;50.892;16.746;2023-07-13T03:51:09;98888.52;;;21.22;61.35
37200;BME280;23096;50.892;16.746;2023-07-13T03:53:39;98888.56;;;21.24;61.53
37200;BME280;23096;50.892;16.746;2023-07-13T03:56:07;98899.75;;;21.24;61.32
37200;BME280;23096;50.892;16.746;2023-07-13T03:58:35;98932.23;;;21.19;61.20
37200;BME280;23096;50.892;16.746;2023-07-13T04:01:12;98984.80;;;21.13;61.21
37200;BME280;23096;50.892;16.746;2023-07-13T04:03:38;99016.29;;;21.01;61.14
37200;BME280;23096;50.892;16.746;2023-07-13T04:06:05;99019.27;;;20.78;60.95
37200;BME280;23096;50.892;16.746;2023-07-13T04:08:36;99026.02;;;20.58;60.87
37200;BME280;23096;50.892;16.746;2023-07-13T04:11:04;99025.95;;;20.39;60.79
37200;BME280;23096;50.892;16.746;2023-07-13T04:13:30;99034.44;;;20.25;61.00
37200;BME280;23096;50.892;16.746;2023-07-13T04:15:55;99042.90;;;20.17;61.05
37200;BME280;23096;50.892;16.746;2023-07-13T04:18:21;99058.55;;;20.03;60.74
37200;BME280;23096;50.892;16.746;2023-07-13T04:20:48;99082.17;;;19.78;60.66
37200;BME280;23096;50.892;16.746;2023-07-13T04:23:15;99098.30;;;19.42;60.45
37200;BME280;23096;50.892;16.746;2023-07-13T04:25:44;99104.55;;;19.05;60.48
37200;BME280;23096;50.892;16.746;2023-07-13T04:28:09;99102.56;;;18.65;60.58
37200;BME280;23096;50.892;16.746;2023-07-13T04:30:35;99122.10;;;18.32;61.18
37200;BME280;23096;50.892;16.746;2023-07-13T04:33:01;99129.52;;;18.04;61.34
37200;BME280;23096;50.892;16.746;2023-07-13T04:35:26;99121.48;;;17.80;61.74
37200;BME280;23096;50.892;16.746;2023-07-13T04:37:52;99096.72;;;17.51;61.88
37200;BME280;23096;50.892;16.746;2023-07-13T04:40:19;99108.95;;;17.21;62.23
37200;BME280;23096;50.892;16.746;2023-07-13T04:42:46;99130.70;;;16.98;62.75
37200;BME280;23096;50.892;16.746;2023-07-13T04:45:13;99145.78;;;16.86;63.30
